Terminal Aerodrome Forecast
Issued by NWS

Home | Current Version | Previous Version | Text Only | Print | Product List | Glossary On
Versions: 1 2 3 4 5 6 7 8 9 10 11 12
000
FTUS45 KLKN 251100
TAFELY
TAF
KELY 251120Z 2512/2612 22012KT P6SM SKC
     FM251800 18024G39KT P6SM SCT250
     FM260900 20012KT P6SM BKN250=

USA.gov is the U.S. government's official web portal to all federal, state and local government web resources and services.